sensor_id;sensor_type;location;lat;lon;timestamp;P1;durP1;ratioP1;P2;durP2;ratioP2
29246;SDS011;16272;48.188;9.964;2022-10-17T00:00:04;7.18;;;2.17;;
29246;SDS011;16272;48.188;9.964;2022-10-17T00:02:30;7.65;;;2.20;;
29246;SDS011;16272;48.188;9.964;2022-10-17T00:05:00;6.80;;;2.20;;
29246;SDS011;16272;48.188;9.964;2022-10-17T00:07:25;9.93;;;2.35;;
29246;SDS011;16272;48.188;9.964;2022-10-17T00:09:51;7.63;;;1.90;;
29246;SDS011;16272;48.188;9.964;2022-10-17T00:12:16;8.53;;;2.50;;
29246;SDS011;16272;48.188;9.964;2022-10-17T00:14:41;6.30;;;2.30;;
29246;SDS011;16272;48.188;9.964;2022-10-17T00:17:07;8.43;;;2.07;;
29246;SDS011;16272;48.188;9.964;2022-10-17T00:19:32;10.83;;;2.60;;
29246;SDS011;16272;48.188;9.964;2022-10-17T00:21:57;9.67;;;2.60;;
29246;SDS011;16272;48.188;9.964;2022-10-17T00:24:23;9.20;;;2.33;;
29246;SDS011;16272;48.188;9.964;2022-10-17T00:26:48;8.20;;;2.30;;
29246;SDS011;16272;48.188;9.964;2022-10-17T00:29:13;7.13;;;2.40;;
29246;SDS011;16272;48.188;9.964;2022-10-17T00:31:39;8.25;;;2.30;;
29246;SDS011;16272;48.188;9.964;2022-10-17T00:34:04;7.30;;;2.53;;
29246;SDS011;16272;48.188;9.964;2022-10-17T00:36:30;7.37;;;2.50;;
29246;SDS011;16272;48.188;9.964;2022-10-17T00:38:56;9.00;;;2.70;;
29246;SDS011;16272;48.188;9.964;2022-10-17T00:41:24;6.38;;;2.22;;
29246;SDS011;16272;48.188;9.964;2022-10-17T00:46:33;9.35;;;2.35;;
29246;SDS011;16272;48.188;9.964;2022-10-17T00:49:08;7.93;;;2.30;;
29246;SDS011;16272;48.188;9.964;2022-10-17T00:51:45;6.70;;;2.05;;
29246;SDS011;16272;48.188;9.964;2022-10-17T00:54:15;8.18;;;2.22;;
29246;SDS011;16272;48.188;9.964;2022-10-17T00:56:43;7.10;;;2.17;;
29246;SDS011;16272;48.188;9.964;2022-10-17T00:59:12;8.27;;;2.25;;
29246;SDS011;16272;48.188;9.964;2022-10-17T01:01:40;6.40;;;2.10;;
29246;SDS011;16272;48.188;9.964;2022-10-17T01:04:07;6.88;;;2.00;;
29246;SDS011;16272;48.188;9.964;2022-10-17T01:06:34;7.60;;;2.15;;
29246;SDS011;16272;48.188;9.964;2022-10-17T01:08:59;7.53;;;2.25;;
29246;SDS011;16272;48.188;9.964;2022-10-17T01:11:37;7.57;;;2.30;;
29246;SDS011;16272;48.188;9.964;2022-10-17T01:22:46;6.65;;;2.45;;
29246;SDS011;16272;48.188;9.964;2022-10-17T01:27:55;8.25;;;2.40;;
29246;SDS011;16272;48.188;9.964;2022-10-17T01:39:13;7.57;;;2.15;;
29246;SDS011;16272;48.188;9.964;2022-10-17T01:41:46;10.95;;;2.35;;
29246;SDS011;16272;48.188;9.964;2022-10-17T01:47:17;6.40;;;2.20;;
29246;SDS011;16272;48.188;9.964;2022-10-17T01:49:45;7.72;;;2.28;;
29246;SDS011;16272;48.188;9.964;2022-10-17T01:52:18;8.63;;;2.50;;
29246;SDS011;16272;48.188;9.964;2022-10-17T01:54:48;7.45;;;2.03;;
29246;SDS011;16272;48.188;9.964;2022-10-17T01:58:02;7.00;;;2.38;;
29246;SDS011;16272;48.188;9.964;2022-10-17T02:00:10;8.07;;;2.50;;
29246;SDS011;16272;48.188;9.964;2022-10-17T02:02:40;8.68;;;2.20;;
29246;SDS011;16272;48.188;9.964;2022-10-17T02:05:07;9.95;;;2.45;;
29246;SDS011;16272;48.188;9.964;2022-10-17T02:07:34;7.93;;;2.10;;
29246;SDS011;16272;48.188;9.964;2022-10-17T02:09:59;11.87;;;2.57;;
29246;SDS011;16272;48.188;9.964;2022-10-17T02:18:14;7.22;;;2.25;;
29246;SDS011;16272;48.188;9.964;2022-10-17T02:20:59;7.85;;;2.15;;
29246;SDS011;16272;48.188;9.964;2022-10-17T02:23:55;6.43;;;2.13;;
29246;SDS011;16272;48.188;9.964;2022-10-17T02:26:32;7.72;;;2.38;;
29246;SDS011;16272;48.188;9.964;2022-10-17T02:29:04;6.25;;;2.00;;
29246;SDS011;16272;48.188;9.964;2022-10-17T02:31:41;7.13;;;1.80;;
29246;SDS011;16272;48.188;9.964;2022-10-17T02:34:20;10.57;;;1.95;;
29246;SDS011;16272;48.188;9.964;2022-10-17T02:37:08;6.60;;;2.13;;
29246;SDS011;16272;48.188;9.964;2022-10-17T02:39:36;10.77;;;2.30;;
29246;SDS011;16272;48.188;9.964;2022-10-17T02:42:05;6.22;;;1.98;;
29246;SDS011;16272;48.188;9.964;2022-10-17T02:44:33;7.70;;;2.00;;
29246;SDS011;16272;48.188;9.964;2022-10-17T02:47:08;8.15;;;2.00;;
29246;SDS011;16272;48.188;9.964;2022-10-17T02:49:54;8.33;;;2.10;;
29246;SDS011;16272;48.188;9.964;2022-10-17T02:55:05;9.75;;;1.95;;
29246;SDS011;16272;48.188;9.964;2022-10-17T02:57:36;6.57;;;2.20;;
29246;SDS011;16272;48.188;9.964;2022-10-17T03:00:05;7.55;;;2.00;;
29246;SDS011;16272;48.188;9.964;2022-10-17T03:02:37;8.80;;;1.83;;
29246;SDS011;16272;48.188;9.964;2022-10-17T03:05:08;5.78;;;1.85;;
29246;SDS011;16272;48.188;9.964;2022-10-17T03:07:34;9.20;;;2.05;;
29246;SDS011;16272;48.188;9.964;2022-10-17T03:09:59;7.50;;;1.90;;
29246;SDS011;16272;48.188;9.964;2022-10-17T03:12:29;5.83;;;1.80;;
29246;SDS011;16272;48.188;9.964;2022-10-17T03:14:55;13.43;;;1.90;;
29246;SDS011;16272;48.188;9.964;2022-10-17T03:17:28;18.57;;;2.00;;
29246;SDS011;16272;48.188;9.964;2022-10-17T03:19:53;15.20;;;1.95;;
29246;SDS011;16272;48.188;9.964;2022-10-17T03:22:19;7.93;;;1.80;;
29246;SDS011;16272;48.188;9.964;2022-10-17T03:24:44;12.73;;;2.20;;
29246;SDS011;16272;48.188;9.964;2022-10-17T03:27:09;7.72;;;1.98;;
29246;SDS011;16272;48.188;9.964;2022-10-17T03:29:36;7.40;;;1.87;;
29246;SDS011;16272;48.188;9.964;2022-10-17T03:32:01;6.03;;;1.83;;
29246;SDS011;16272;48.188;9.964;2022-10-17T03:34:27;9.98;;;2.00;;
29246;SDS011;16272;48.188;9.964;2022-10-17T03:36:52;6.30;;;1.90;;
29246;SDS011;16272;48.188;9.964;2022-10-17T03:39:17;6.83;;;1.83;;
29246;SDS011;16272;48.188;9.964;2022-10-17T03:41:43;5.90;;;1.77;;
29246;SDS011;16272;48.188;9.964;2022-10-17T03:44:10;7.03;;;2.20;;
29246;SDS011;16272;48.188;9.964;2022-10-17T03:46:37;7.07;;;2.10;;
29246;SDS011;16272;48.188;9.964;2022-10-17T03:49:02;7.00;;;2.40;;
29246;SDS011;16272;48.188;9.964;2022-10-17T03:51:28;7.00;;;2.00;;
29246;SDS011;16272;48.188;9.964;2022-10-17T03:53:54;6.60;;;2.17;;
29246;SDS011;16272;48.188;9.964;2022-10-17T03:56:32;6.77;;;2.20;;
29246;SDS011;16272;48.188;9.964;2022-10-17T03:58:57;7.78;;;2.30;;
29246;SDS011;16272;48.188;9.964;2022-10-17T04:01:23;7.60;;;2.10;;
29246;SDS011;16272;48.188;9.964;2022-10-17T04:03:49;8.50;;;1.97;;
29246;SDS011;16272;48.188;9.964;2022-10-17T04:06:22;7.18;;;2.00;;
29246;SDS011;16272;48.188;9.964;2022-10-17T04:08:48;7.72;;;2.15;;
29246;SDS011;16272;48.188;9.964;2022-10-17T04:11:15;7.10;;;2.03;;
29246;SDS011;16272;48.188;9.964;2022-10-17T04:13:43;6.72;;;2.00;;
29246;SDS011;16272;48.188;9.964;2022-10-17T04:16:12;6.20;;;1.93;;
29246;SDS011;16272;48.188;9.964;2022-10-17T04:18:39;9.77;;;2.28;;
29246;SDS011;16272;48.188;9.964;2022-10-17T04:21:06;9.40;;;2.30;;
29246;SDS011;16272;48.188;9.964;2022-10-17T04:23:33;7.72;;;1.85;;
29246;SDS011;16272;48.188;9.964;2022-10-17T04:26:01;7.60;;;2.00;;
29246;SDS011;16272;48.188;9.964;2022-10-17T04:28:27;6.13;;;1.85;;
29246;SDS011;16272;48.188;9.964;2022-10-17T04:31:04;7.53;;;2.13;;
29246;SDS011;16272;48.188;9.964;2022-10-17T04:33:32;6.85;;;1.98;;
29246;SDS011;16272;48.188;9.964;2022-10-17T04:36:02;5.80;;;1.98;;
29246;SDS011;16272;48.188;9.964;2022-10-17T04:38:29;7.57;;;1.93;;
29246;SDS011;16272;48.188;9.964;2022-10-17T04:40:59;13.43;;;1.80;;
29246;SDS011;16272;48.188;9.964;2022-10-17T04:43:29;12.98;;;2.00;;
29246;SDS011;16272;48.188;9.964;2022-10-17T04:46:01;9.38;;;2.17;;
29246;SDS011;16272;48.188;9.964;2022-10-17T04:48:27;8.07;;;2.53;;
29246;SDS011;16272;48.188;9.964;2022-10-17T04:51:00;8.07;;;2.90;;
29246;SDS011;16272;48.188;9.964;2022-10-17T04:53:27;10.73;;;2.58;;
29246;SDS011;16272;48.188;9.964;2022-10-17T04:55:56;7.30;;;2.50;;
29246;SDS011;16272;48.188;9.964;2022-10-17T04:58:21;8.80;;;1.90;;
29246;SDS011;16272;48.188;9.964;2022-10-17T05:00:51;7.50;;;2.40;;
29246;SDS011;16272;48.188;9.964;2022-10-17T05:03:16;7.78;;;2.40;;
29246;SDS011;16272;48.188;9.964;2022-10-17T05:05:53;9.13;;;2.73;;
29246;SDS011;16272;48.188;9.964;2022-10-17T05:08:18;7.20;;;2.47;;
29246;SDS011;16272;48.188;9.964;2022-10-17T05:10:44;7.57;;;2.23;;
29246;SDS011;16272;48.188;9.964;2022-10-17T05:13:12;8.32;;;2.30;;
29246;SDS011;16272;48.188;9.964;2022-10-17T05:15:44;7.93;;;2.50;;
29246;SDS011;16272;48.188;9.964;2022-10-17T05:18:10;8.00;;;2.40;;
29246;SDS011;16272;48.188;9.964;2022-10-17T05:20:35;8.60;;;2.08;;
29246;SDS011;16272;48.188;9.964;2022-10-17T05:23:02;9.20;;;2.23;;
29246;SDS011;16272;48.188;9.964;2022-10-17T05:25:27;7.68;;;2.25;;
29246;SDS011;16272;48.188;9.964;2022-10-17T05:27:53;8.00;;;2.10;;
29246;SDS011;16272;48.188;9.964;2022-10-17T05:30:18;8.23;;;2.20;;
29246;SDS011;16272;48.188;9.964;2022-10-17T05:32:43;8.30;;;2.23;;
29246;SDS011;16272;48.188;9.964;2022-10-17T05:35:10;8.93;;;2.25;;
29246;SDS011;16272;48.188;9.964;2022-10-17T05:37:35;11.57;;;2.50;;
29246;SDS011;16272;48.188;9.964;2022-10-17T05:40:01;7.95;;;2.53;;
29246;SDS011;16272;48.188;9.964;2022-10-17T05:42:26;7.07;;;2.10;;
29246;SDS011;16272;48.188;9.964;2022-10-17T05:44:52;7.67;;;2.27;;
29246;SDS011;16272;48.188;9.964;2022-10-17T05:47:29;7.33;;;2.40;;
29246;SDS011;16272;48.188;9.964;2022-10-17T05:49:57;9.60;;;2.50;;
29246;SDS011;16272;48.188;9.964;2022-10-17T05:52:22;8.95;;;2.53;;
29246;SDS011;16272;48.188;9.964;2022-10-17T05:54:47;7.13;;;2.40;;
29246;SDS011;16272;48.188;9.964;2022-10-17T05:57:13;7.30;;;2.67;;
29246;SDS011;16272;48.188;9.964;2022-10-17T05:59:39;8.00;;;2.63;;
29246;SDS011;16272;48.188;9.964;2022-10-17T06:02:05;7.13;;;2.30;;
29246;SDS011;16272;48.188;9.964;2022-10-17T06:04:37;8.52;;;2.10;;
29246;SDS011;16272;48.188;9.964;2022-10-17T06:07:18;6.47;;;2.20;;
29246;SDS011;16272;48.188;9.964;2022-10-17T06:09:44;8.15;;;2.40;;
29246;SDS011;16272;48.188;9.964;2022-10-17T06:12:10;8.07;;;2.45;;
29246;SDS011;16272;48.188;9.964;2022-10-17T06:17:06;8.00;;;2.50;;
29246;SDS011;16272;48.188;9.964;2022-10-17T06:19:31;9.55;;;2.90;;
29246;SDS011;16272;48.188;9.964;2022-10-17T06:21:57;7.90;;;2.70;;
29246;SDS011;16272;48.188;9.964;2022-10-17T06:24:23;7.18;;;2.70;;
29246;SDS011;16272;48.188;9.964;2022-10-17T06:26:48;10.63;;;2.67;;
29246;SDS011;16272;48.188;9.964;2022-10-17T06:29:16;8.82;;;2.63;;
29246;SDS011;16272;48.188;9.964;2022-10-17T06:31:41;8.23;;;2.57;;
29246;SDS011;16272;48.188;9.964;2022-10-17T06:34:06;7.28;;;2.50;;
29246;SDS011;16272;48.188;9.964;2022-10-17T06:36:32;7.43;;;2.40;;
29246;SDS011;16272;48.188;9.964;2022-10-17T06:38:57;7.90;;;2.73;;
29246;SDS011;16272;48.188;9.964;2022-10-17T06:41:22;10.70;;;3.10;;
29246;SDS011;16272;48.188;9.964;2022-10-17T06:43:49;9.32;;;2.80;;
29246;SDS011;16272;48.188;9.964;2022-10-17T06:46:26;9.43;;;3.20;;
29246;SDS011;16272;48.188;9.964;2022-10-17T06:48:53;8.68;;;2.97;;
29246;SDS011;16272;48.188;9.964;2022-10-17T06:51:19;9.03;;;2.90;;
29246;SDS011;16272;48.188;9.964;2022-10-17T06:53:44;11.60;;;2.63;;
29246;SDS011;16272;48.188;9.964;2022-10-17T06:56:10;7.73;;;2.60;;
29246;SDS011;16272;48.188;9.964;2022-10-17T06:58:36;7.18;;;2.80;;
29246;SDS011;16272;48.188;9.964;2022-10-17T07:01:05;8.10;;;3.00;;
29246;SDS011;16272;48.188;9.964;2022-10-17T07:03:32;7.53;;;3.07;;
29246;SDS011;16272;48.188;9.964;2022-10-17T07:06:00;11.65;;;2.95;;
29246;SDS011;16272;48.188;9.964;2022-10-17T07:08:25;8.45;;;3.35;;
29246;SDS011;16272;48.188;9.964;2022-10-17T07:10:51;10.20;;;3.30;;
29246;SDS011;16272;48.188;9.964;2022-10-17T07:13:17;8.80;;;3.33;;
29246;SDS011;16272;48.188;9.964;2022-10-17T07:15:43;9.57;;;3.00;;
29246;SDS011;16272;48.188;9.964;2022-10-17T07:18:08;8.73;;;2.80;;
29246;SDS011;16272;48.188;9.964;2022-10-17T07:20:34;10.70;;;3.30;;
29246;SDS011;16272;48.188;9.964;2022-10-17T07:23:00;10.82;;;3.33;;
29246;SDS011;16272;48.188;9.964;2022-10-17T07:25:26;8.93;;;3.13;;
29246;SDS011;16272;48.188;9.964;2022-10-17T07:27:56;8.87;;;3.13;;
29246;SDS011;16272;48.188;9.964;2022-10-17T07:30:21;8.70;;;3.58;;
29246;SDS011;16272;48.188;9.964;2022-10-17T07:32:47;8.15;;;3.58;;
29246;SDS011;16272;48.188;9.964;2022-10-17T07:35:13;9.93;;;3.37;;
29246;SDS011;16272;48.188;9.964;2022-10-17T07:37:38;12.47;;;3.10;;
29246;SDS011;16272;48.188;9.964;2022-10-17T07:40:05;9.60;;;3.40;;
29246;SDS011;16272;48.188;9.964;2022-10-17T07:42:32;9.40;;;3.17;;
29246;SDS011;16272;48.188;9.964;2022-10-17T07:45:00;7.15;;;2.90;;
29246;SDS011;16272;48.188;9.964;2022-10-17T07:47:27;8.10;;;2.83;;
29246;SDS011;16272;48.188;9.964;2022-10-17T07:49:57;9.37;;;3.03;;
29246;SDS011;16272;48.188;9.964;2022-10-17T07:52:23;8.85;;;3.38;;
29246;SDS011;16272;48.188;9.964;2022-10-17T07:54:48;9.87;;;3.17;;
29246;SDS011;16272;48.188;9.964;2022-10-17T07:57:15;10.48;;;3.40;;
29246;SDS011;16272;48.188;9.964;2022-10-17T07:59:40;9.60;;;3.40;;
29246;SDS011;16272;48.188;9.964;2022-10-17T08:02:06;7.90;;;3.25;;
29246;SDS011;16272;48.188;9.964;2022-10-17T08:04:33;9.43;;;3.30;;
29246;SDS011;16272;48.188;9.964;2022-10-17T08:07:00;7.28;;;2.90;;
29246;SDS011;16272;48.188;9.964;2022-10-17T08:09:25;11.30;;;3.07;;
29246;SDS011;16272;48.188;9.964;2022-10-17T08:11:50;9.43;;;3.50;;
29246;SDS011;16272;48.188;9.964;2022-10-17T08:14:16;8.13;;;3.23;;
29246;SDS011;16272;48.188;9.964;2022-10-17T08:16:42;7.97;;;3.13;;
29246;SDS011;16272;48.188;9.964;2022-10-17T08:19:07;7.93;;;3.03;;
29246;SDS011;16272;48.188;9.964;2022-10-17T08:21:33;9.25;;;3.58;;
29246;SDS011;16272;48.188;9.964;2022-10-17T08:23:59;9.18;;;3.55;;
29246;SDS011;16272;48.188;9.964;2022-10-17T08:26:27;9.20;;;3.13;;
29246;SDS011;16272;48.188;9.964;2022-10-17T08:29:21;9.63;;;3.38;;
29246;SDS011;16272;48.188;9.964;2022-10-17T08:31:46;8.70;;;3.40;;
29246;SDS011;16272;48.188;9.964;2022-10-17T08:34:12;9.10;;;3.50;;
29246;SDS011;16272;48.188;9.964;2022-10-17T08:36:37;9.52;;;3.70;;
29246;SDS011;16272;48.188;9.964;2022-10-17T08:47:46;10.20;;;3.88;;
29246;SDS011;16272;48.188;9.964;2022-10-17T08:50:21;15.73;;;4.13;;
29246;SDS011;16272;48.188;9.964;2022-10-17T08:53:02;9.02;;;3.85;;
29246;SDS011;16272;48.188;9.964;2022-10-17T08:58:22;10.33;;;3.93;;
29246;SDS011;16272;48.188;9.964;2022-10-17T09:06:20;9.15;;;4.30;;
29246;SDS011;16272;48.188;9.964;2022-10-17T09:11:49;9.85;;;3.45;;
29246;SDS011;16272;48.188;9.964;2022-10-17T09:19:38;8.77;;;3.50;;
29246;SDS011;16272;48.188;9.964;2022-10-17T09:22:22;10.60;;;3.63;;
29246;SDS011;16272;48.188;9.964;2022-10-17T09:24:52;10.95;;;3.35;;
29246;SDS011;16272;48.188;9.964;2022-10-17T09:27:25;9.23;;;3.90;;
29246;SDS011;16272;48.188;9.964;2022-10-17T09:30:28;10.57;;;2.90;;
29246;SDS011;16272;48.188;9.964;2022-10-17T09:32:59;8.73;;;2.88;;
29246;SDS011;16272;48.188;9.964;2022-10-17T09:38:35;8.13;;;2.90;;
29246;SDS011;16272;48.188;9.964;2022-10-17T09:40:59;7.22;;;2.83;;
29246;SDS011;16272;48.188;9.964;2022-10-17T09:43:26;7.43;;;2.40;;
29246;SDS011;16272;48.188;9.964;2022-10-17T09:46:09;7.85;;;2.70;;
29246;SDS011;16272;48.188;9.964;2022-10-17T09:51:22;9.33;;;2.87;;
29246;SDS011;16272;48.188;9.964;2022-10-17T09:53:53;8.98;;;2.88;;
29246;SDS011;16272;48.188;9.964;2022-10-17T09:56:28;10.10;;;3.00;;
29246;SDS011;16272;48.188;9.964;2022-10-17T09:58:57;9.43;;;2.88;;
29246;SDS011;16272;48.188;9.964;2022-10-17T10:01:26;8.43;;;2.78;;
29246;SDS011;16272;48.188;9.964;2022-10-17T10:04:13;7.27;;;2.60;;
29246;SDS011;16272;48.188;9.964;2022-10-17T10:06:40;8.70;;;2.90;;
29246;SDS011;16272;48.188;9.964;2022-10-17T10:09:24;8.75;;;2.83;;
29246;SDS011;16272;48.188;9.964;2022-10-17T10:11:53;6.78;;;2.72;;
29246;SDS011;16272;48.188;9.964;2022-10-17T10:16:48;7.63;;;2.97;;
29246;SDS011;16272;48.188;9.964;2022-10-17T10:19:19;6.70;;;2.40;;
29246;SDS011;16272;48.188;9.964;2022-10-17T10:21:54;7.05;;;2.75;;
29246;SDS011;16272;48.188;9.964;2022-10-17T10:24:21;7.78;;;2.55;;
29246;SDS011;16272;48.188;9.964;2022-10-17T10:26:48;9.50;;;3.28;;
29246;SDS011;16272;48.188;9.964;2022-10-17T10:37:19;6.80;;;2.80;;
29246;SDS011;16272;48.188;9.964;2022-10-17T10:42:39;7.27;;;2.87;;
29246;SDS011;16272;48.188;9.964;2022-10-17T10:45:18;7.47;;;2.80;;
29246;SDS011;16272;48.188;9.964;2022-10-17T10:47:51;7.45;;;2.70;;
29246;SDS011;16272;48.188;9.964;2022-10-17T10:50:21;7.70;;;2.72;;
29246;SDS011;16272;48.188;9.964;2022-10-17T10:52:53;8.45;;;3.05;;
29246;SDS011;16272;48.188;9.964;2022-10-17T10:55:29;7.33;;;2.83;;
29246;SDS011;16272;48.188;9.964;2022-10-17T10:58:02;7.70;;;2.80;;
29246;SDS011;16272;48.188;9.964;2022-10-17T11:00:31;8.15;;;3.00;;
29246;SDS011;16272;48.188;9.964;2022-10-17T11:05:45;7.65;;;2.63;;
29246;SDS011;16272;48.188;9.964;2022-10-17T11:11:13;5.78;;;2.30;;
29246;SDS011;16272;48.188;9.964;2022-10-17T11:16:48;7.10;;;2.58;;
29246;SDS011;16272;48.188;9.964;2022-10-17T11:22:34;7.87;;;2.40;;
29246;SDS011;16272;48.188;9.964;2022-10-17T11:28:12;7.75;;;2.15;;
29246;SDS011;16272;48.188;9.964;2022-10-17T11:31:13;7.38;;;2.10;;
29246;SDS011;16272;48.188;9.964;2022-10-17T11:33:45;6.03;;;2.40;;
29246;SDS011;16272;48.188;9.964;2022-10-17T11:36:22;6.40;;;2.20;;
29246;SDS011;16272;48.188;9.964;2022-10-17T11:41:28;6.38;;;2.30;;
29246;SDS011;16272;48.188;9.964;2022-10-17T11:44:04;7.28;;;2.10;;
29246;SDS011;16272;48.188;9.964;2022-10-17T11:46:38;5.60;;;2.00;;
29246;SDS011;16272;48.188;9.964;2022-10-17T11:54:53;5.53;;;1.90;;
29246;SDS011;16272;48.188;9.964;2022-10-17T12:00:20;6.60;;;2.20;;
29246;SDS011;16272;48.188;9.964;2022-10-17T12:11:56;8.18;;;2.22;;
29246;SDS011;16272;48.188;9.964;2022-10-17T12:19:46;7.50;;;2.67;;
29246;SDS011;16272;48.188;9.964;2022-10-17T12:32:57;6.90;;;2.78;;
29246;SDS011;16272;48.188;9.964;2022-10-17T12:35:46;6.73;;;2.33;;
29246;SDS011;16272;48.188;9.964;2022-10-17T12:45:44;6.93;;;2.40;;
29246;SDS011;16272;48.188;9.964;2022-10-17T12:51:04;8.13;;;2.50;;
29246;SDS011;16272;48.188;9.964;2022-10-17T12:56:11;7.15;;;2.58;;
29246;SDS011;16272;48.188;9.964;2022-10-17T12:58:50;6.63;;;2.30;;
29246;SDS011;16272;48.188;9.964;2022-10-17T13:01:30;6.55;;;2.33;;
29246;SDS011;16272;48.188;9.964;2022-10-17T13:04:00;7.30;;;2.43;;
29246;SDS011;16272;48.188;9.964;2022-10-17T13:06:32;8.15;;;2.60;;
29246;SDS011;16272;48.188;9.964;2022-10-17T13:09:03;6.47;;;2.53;;
29246;SDS011;16272;48.188;9.964;2022-10-17T13:11:33;7.88;;;3.72;;
29246;SDS011;16272;48.188;9.964;2022-10-17T13:14:02;5.60;;;2.28;;
29246;SDS011;16272;48.188;9.964;2022-10-17T13:16:40;7.90;;;2.30;;
29246;SDS011;16272;48.188;9.964;2022-10-17T13:19:17;8.00;;;2.50;;
29246;SDS011;16272;48.188;9.964;2022-10-17T13:21:59;6.35;;;2.70;;
29246;SDS011;16272;48.188;9.964;2022-10-17T13:29:26;6.77;;;2.40;;
29246;SDS011;16272;48.188;9.964;2022-10-17T13:32:03;7.97;;;2.60;;
29246;SDS011;16272;48.188;9.964;2022-10-17T13:34:30;8.43;;;2.40;;
29246;SDS011;16272;48.188;9.964;2022-10-17T13:36:58;7.75;;;2.50;;
29246;SDS011;16272;48.188;9.964;2022-10-17T13:39:38;7.22;;;2.50;;
29246;SDS011;16272;48.188;9.964;2022-10-17T13:42:05;9.17;;;2.50;;
29246;SDS011;16272;48.188;9.964;2022-10-17T13:44:40;7.47;;;2.20;;
29246;SDS011;16272;48.188;9.964;2022-10-17T13:47:05;7.80;;;2.53;;
29246;SDS011;16272;48.188;9.964;2022-10-17T13:49:41;7.97;;;3.00;;
29246;SDS011;16272;48.188;9.964;2022-10-17T13:52:15;7.70;;;2.30;;
29246;SDS011;16272;48.188;9.964;2022-10-17T13:54:44;6.55;;;2.45;;
29246;SDS011;16272;48.188;9.964;2022-10-17T13:57:25;7.30;;;2.67;;
29246;SDS011;16272;48.188;9.964;2022-10-17T14:02:26;6.10;;;2.30;;
29246;SDS011;16272;48.188;9.964;2022-10-17T14:10:41;7.40;;;2.55;;
29246;SDS011;16272;48.188;9.964;2022-10-17T14:13:13;7.53;;;2.40;;
29246;SDS011;16272;48.188;9.964;2022-10-17T14:18:34;6.10;;;2.20;;
29246;SDS011;16272;48.188;9.964;2022-10-17T14:21:01;6.32;;;2.40;;
29246;SDS011;16272;48.188;9.964;2022-10-17T14:23:39;7.93;;;2.10;;
29246;SDS011;16272;48.188;9.964;2022-10-17T14:26:15;6.15;;;2.65;;
29246;SDS011;16272;48.188;9.964;2022-10-17T14:28:46;6.18;;;2.08;;
29246;SDS011;16272;48.188;9.964;2022-10-17T14:31:23;7.17;;;2.60;;
29246;SDS011;16272;48.188;9.964;2022-10-17T14:33:53;6.72;;;2.40;;
29246;SDS011;16272;48.188;9.964;2022-10-17T14:36:20;7.93;;;2.22;;
29246;SDS011;16272;48.188;9.964;2022-10-17T14:38:54;10.05;;;2.55;;
29246;SDS011;16272;48.188;9.964;2022-10-17T14:41:24;7.60;;;2.30;;
29246;SDS011;16272;48.188;9.964;2022-10-17T14:43:53;13.23;;;2.70;;
29246;SDS011;16272;48.188;9.964;2022-10-17T14:46:20;12.87;;;2.40;;
29246;SDS011;16272;48.188;9.964;2022-10-17T14:48:50;6.80;;;2.17;;
29246;SDS011;16272;48.188;9.964;2022-10-17T14:51:23;8.68;;;2.42;;
29246;SDS011;16272;48.188;9.964;2022-10-17T14:53:58;6.97;;;2.20;;
29246;SDS011;16272;48.188;9.964;2022-10-17T14:56:25;7.35;;;2.50;;
29246;SDS011;16272;48.188;9.964;2022-10-17T14:58:52;6.65;;;2.55;;
29246;SDS011;16272;48.188;9.964;2022-10-17T15:01:18;6.13;;;2.30;;
29246;SDS011;16272;48.188;9.964;2022-10-17T15:03:43;6.82;;;2.58;;
29246;SDS011;16272;48.188;9.964;2022-10-17T15:06:23;6.57;;;2.55;;
29246;SDS011;16272;48.188;9.964;2022-10-17T15:08:55;7.00;;;2.27;;
29246;SDS011;16272;48.188;9.964;2022-10-17T15:11:23;9.30;;;2.47;;
29246;SDS011;16272;48.188;9.964;2022-10-17T15:13:51;8.32;;;2.58;;
29246;SDS011;16272;48.188;9.964;2022-10-17T15:18:45;8.33;;;2.40;;
29246;SDS011;16272;48.188;9.964;2022-10-17T15:21:11;6.82;;;2.60;;
29246;SDS011;16272;48.188;9.964;2022-10-17T15:23:38;9.57;;;2.40;;
29246;SDS011;16272;48.188;9.964;2022-10-17T15:26:08;8.63;;;2.33;;
29246;SDS011;16272;48.188;9.964;2022-10-17T15:28:40;10.95;;;2.70;;
29246;SDS011;16272;48.188;9.964;2022-10-17T15:31:07;11.13;;;5.95;;
29246;SDS011;16272;48.188;9.964;2022-10-17T15:33:35;7.17;;;2.83;;
29246;SDS011;16272;48.188;9.964;2022-10-17T15:36:02;8.13;;;2.47;;
29246;SDS011;16272;48.188;9.964;2022-10-17T15:38:27;9.63;;;2.67;;
29246;SDS011;16272;48.188;9.964;2022-10-17T15:41:00;9.70;;;2.60;;
29246;SDS011;16272;48.188;9.964;2022-10-17T15:43:25;9.32;;;2.40;;
29246;SDS011;16272;48.188;9.964;2022-10-17T15:45:51;7.53;;;2.70;;
29246;SDS011;16272;48.188;9.964;2022-10-17T15:48:19;7.68;;;2.90;;
29246;SDS011;16272;48.188;9.964;2022-10-17T15:50:52;8.53;;;2.33;;
29246;SDS011;16272;48.188;9.964;2022-10-17T15:53:17;7.65;;;2.33;;
29246;SDS011;16272;48.188;9.964;2022-10-17T15:55:43;11.53;;;2.40;;
29246;SDS011;16272;48.188;9.964;2022-10-17T15:58:11;7.73;;;2.43;;
29246;SDS011;16272;48.188;9.964;2022-10-17T16:00:40;7.70;;;3.00;;
29246;SDS011;16272;48.188;9.964;2022-10-17T16:03:06;8.73;;;2.20;;
29246;SDS011;16272;48.188;9.964;2022-10-17T16:05:35;6.60;;;2.20;;
29246;SDS011;16272;48.188;9.964;2022-10-17T16:13:16;8.05;;;2.60;;
29246;SDS011;16272;48.188;9.964;2022-10-17T16:15:44;10.67;;;2.37;;
29246;SDS011;16272;48.188;9.964;2022-10-17T16:18:09;8.15;;;2.40;;
29246;SDS011;16272;48.188;9.964;2022-10-17T16:20:36;7.60;;;2.60;;
29246;SDS011;16272;48.188;9.964;2022-10-17T16:23:03;8.93;;;2.70;;
29246;SDS011;16272;48.188;9.964;2022-10-17T16:25:30;7.17;;;2.40;;
29246;SDS011;16272;48.188;9.964;2022-10-17T16:27:57;9.70;;;2.70;;
29246;SDS011;16272;48.188;9.964;2022-10-17T16:30:24;7.45;;;2.55;;
29246;SDS011;16272;48.188;9.964;2022-10-17T16:35:23;8.27;;;2.55;;
29246;SDS011;16272;48.188;9.964;2022-10-17T16:37:51;7.80;;;2.60;;
29246;SDS011;16272;48.188;9.964;2022-10-17T16:40:17;9.45;;;2.50;;
29246;SDS011;16272;48.188;9.964;2022-10-17T16:42:43;8.80;;;2.38;;
29246;SDS011;16272;48.188;9.964;2022-10-17T16:45:09;6.85;;;2.60;;
29246;SDS011;16272;48.188;9.964;2022-10-17T16:50:16;11.88;;;3.08;;
29246;SDS011;16272;48.188;9.964;2022-10-17T16:52:42;10.20;;;3.00;;
29246;SDS011;16272;48.188;9.964;2022-10-17T16:55:14;9.37;;;2.70;;
29246;SDS011;16272;48.188;9.964;2022-10-17T16:57:42;11.38;;;2.63;;
29246;SDS011;16272;48.188;9.964;2022-10-17T17:00:09;11.38;;;2.78;;
29246;SDS011;16272;48.188;9.964;2022-10-17T17:02:36;10.40;;;2.63;;
29246;SDS011;16272;48.188;9.964;2022-10-17T17:05:01;7.55;;;2.40;;
29246;SDS011;16272;48.188;9.964;2022-10-17T17:07:28;13.75;;;3.03;;
29246;SDS011;16272;48.188;9.964;2022-10-17T17:09:54;9.70;;;3.50;;
29246;SDS011;16272;48.188;9.964;2022-10-17T17:12:20;11.50;;;3.40;;
29246;SDS011;16272;48.188;9.964;2022-10-17T17:14:46;10.10;;;3.15;;
29246;SDS011;16272;48.188;9.964;2022-10-17T17:17:11;9.70;;;3.13;;
29246;SDS011;16272;48.188;9.964;2022-10-17T17:19:36;9.03;;;3.23;;
29246;SDS011;16272;48.188;9.964;2022-10-17T17:24:47;9.65;;;3.67;;
29246;SDS011;16272;48.188;9.964;2022-10-17T17:27:12;11.77;;;3.77;;
29246;SDS011;16272;48.188;9.964;2022-10-17T17:29:38;7.63;;;2.70;;
29246;SDS011;16272;48.188;9.964;2022-10-17T17:32:03;8.20;;;2.90;;
29246;SDS011;16272;48.188;9.964;2022-10-17T17:34:29;10.40;;;3.10;;
29246;SDS011;16272;48.188;9.964;2022-10-17T17:36:56;9.15;;;3.15;;
29246;SDS011;16272;48.188;9.964;2022-10-17T17:39:21;9.80;;;3.20;;
29246;SDS011;16272;48.188;9.964;2022-10-17T17:41:46;9.57;;;3.63;;
29246;SDS011;16272;48.188;9.964;2022-10-17T17:44:13;10.63;;;3.63;;
29246;SDS011;16272;48.188;9.964;2022-10-17T17:46:39;11.02;;;3.60;;
29246;SDS011;16272;48.188;9.964;2022-10-17T17:49:10;8.65;;;3.65;;
29246;SDS011;16272;48.188;9.964;2022-10-17T17:51:36;11.40;;;3.63;;
29246;SDS011;16272;48.188;9.964;2022-10-17T17:56:49;9.40;;;3.70;;